Guaymas, Mexico

8:31 AM MST on January 30, 2015 (GMT -0700)
Gen Jose Ma Yanez International | Change Station
CLOSE
Current Station
Airport
Location: Guaymas,
Elevation: 89 ft
Nearby Weather Stations

Elev 89 ft 27.97 °N, 110.93 °W | Updated 47 minutes ago

Overcast
Overcast
64 °F
Feels Like 64 °F
N
0
Wind Variable Wind from North

Today
High -- | Low -- °F
--% Chance of Precip.
Yesterday
High -- | Low -- °F
Precip. -- in
7:11 AM 6:02 PM
Waxing Gibbous, 83% visible
Pressure 29.90 in
Visibility 4.0 miles
Clouds Overcast 3000 ft
Dew Point 63 °F
Humidity 94%
Rainfall 0.00 in
Snow Depth Not available.
UV 0 out of 12
Pollen Not available.
Air Quality Not available.
Flu Activity Not available.
METAR MMGM 301444Z 00000KT 4SM OVC030 18/17 A2990 RMK 8/5// HZY

More Conditions Fewer Conditions

Pressure 29.90 in
Visibility 4.0 miles
Clouds Overcast 3000 ft
Dew Point 63 °F
Humidity 94%
Rainfall 0.00 in
Snow Depth Not available.
UV 0 out of 12
Pollen Not available.
Air Quality Not available.
Flu Activity Not available.
METAR MMGM 301444Z 00000KT 4SM OVC030 18/17 A2990 RMK 8/5// HZY

More Conditions Fewer Conditions

10-Day Weather Forecast

Almanac

Astronomy

Jan. 30, 2015 Rise Set
Actual Time
Civil Twilight
Nautical Twilight
Astronomical Twilight
Moon
Length of Visible Light
Length of Day
Tomorrow will be .
, % of the Moon is Illuminated

Today's Extremes

Country Highs Country Lows

Community

WunderPhotos

Upload Photos

1,791,791 photos uploaded!

WunderBlogs® & News

Nearby

Air Quality

  Air Quality AQ Index Pollutant
Not available.

Snow Depth

Station Depth Elevation

Earthquake Activity

City Distance Mag. Time & Date
Minimum magnitude displayed is 2.5.

Coastal Water Temperatures

Place Temperature

Nearby Weather Stations